Time,TemperatureF,DewpointF,PressureIn,WindDirection,WindDirectionDegrees,WindSpeedMPH,WindSpeedGustMPH,Humidity,HourlyPrecipIn,Conditions,Clouds,dailyrainin,SolarRadiationWatts/m^2,SoftwareType,DateUTC
2013-10-29 00:00:00,37.0,31.0,-100.00,WNW,292,5.0,-999.0,79,-99.99,,,-99.99,0.000000,,2013-10-29 04:00:00,
2013-10-29 00:44:00,37.0,31.0,-100.00,WNW,292,5.0,-999.0,79,-99.99,,,-99.99,0.000000,,2013-10-29 04:44:00,
2013-10-29 00:57:00,37.0,31.0,-100.00,WNW,292,5.0,-999.0,79,-99.99,,,-99.99,0.000000,,2013-10-29 04:57:00,
2013-10-29 02:00:00,36.0,31.0,-100.00,WNW,292,6.0,-999.0,80,-99.99,,,-99.99,0.000000,,2013-10-29 06:00:00,
2013-10-29 02:44:00,36.0,31.0,-100.00,WNW,292,6.0,-999.0,80,-99.99,,,-99.99,0.000000,,2013-10-29 06:44:00,
2013-10-29 02:53:00,36.0,31.0,-100.00,WNW,292,6.0,-999.0,80,-99.99,,,-99.99,0.000000,,2013-10-29 06:53:00,
2013-10-29 03:00:00,36.0,30.0,-100.00,WNW,292,7.0,-999.0,80,-99.99,,,-99.99,0.000000,,2013-10-29 07:00:00,
2013-10-29 03:44:00,36.0,30.0,-100.00,WNW,292,7.0,-999.0,80,-99.99,,,-99.99,0.000000,,2013-10-29 07:44:00,
2013-10-29 03:55:00,36.0,30.0,-100.00,WNW,292,7.0,-999.0,80,-99.99,,,-99.99,0.000000,,2013-10-29 07:55:00,
2013-10-29 05:00:00,35.0,30.0,-100.00,NW,315,5.0,-999.0,82,-99.99,,,-99.99,0.000000,,2013-10-29 09:00:00,
2013-10-29 05:43:00,35.0,30.0,-100.00,NW,315,5.0,-999.0,82,-99.99,,,-99.99,0.000000,,2013-10-29 09:43:00,
2013-10-29 05:53:00,35.0,30.0,-100.00,NW,315,5.0,-999.0,82,-99.99,,,-99.99,0.000000,,2013-10-29 09:53:00,
2013-10-29 06:00:00,34.0,30.0,-100.00,NW,315,6.0,-999.0,82,-99.99,,,-99.99,0.000000,,2013-10-29 10:00:00,
2013-10-29 06:42:00,34.0,30.0,-100.00,NW,315,6.0,-999.0,82,-99.99,,,-99.99,0.000000,,2013-10-29 10:42:00,
2013-10-29 06:53:00,34.0,30.0,-100.00,NW,315,6.0,-999.0,82,-99.99,,,-99.99,0.000000,,2013-10-29 10:53:00,
2013-10-29 08:00:00,34.0,29.0,-100.00,NW,315,5.0,-999.0,81,-99.99,,,-99.99,0.000000,,2013-10-29 12:00:00,
2013-10-29 08:52:00,34.0,29.0,-100.00,NW,315,5.0,-999.0,81,-99.99,,,-99.99,0.000000,,2013-10-29 12:52:00,
2013-10-29 10:00:00,37.0,31.0,-100.00,NNW,337,6.0,-999.0,77,-99.99,,,-99.99,111.360001,,2013-10-29 14:00:00,
2013-10-29 10:42:00,37.0,31.0,-100.00,NNW,337,6.0,-999.0,77,-99.99,,,-99.99,111.360001,,2013-10-29 14:42:00,
2013-10-29 10:52:00,37.0,31.0,-100.00,NNW,337,6.0,-999.0,77,-99.99,,,-99.99,111.360001,,2013-10-29 14:52:00,
2013-10-29 12:00:00,46.0,35.0,-100.00,North,0,8.0,-999.0,66,-99.99,,,-99.99,287.679993,,2013-10-29 16:00:00,
2013-10-29 12:43:00,46.0,35.0,-100.00,North,0,8.0,-999.0,66,-99.99,,,-99.99,287.679993,,2013-10-29 16:43:00,
2013-10-29 12:53:00,46.0,35.0,-100.00,North,0,8.0,-999.0,66,-99.99,,,-99.99,287.679993,,2013-10-29 16:53:00,
2013-10-29 14:00:00,51.0,36.0,-100.00,NNE,22,7.0,-999.0,57,-99.99,,,-99.99,285.359985,,2013-10-29 18:00:00,
2013-10-29 14:42:00,51.0,36.0,-100.00,NNE,22,7.0,-999.0,57,-99.99,,,-99.99,285.359985,,2013-10-29 18:42:00,
2013-10-29 14:52:00,51.0,36.0,-100.00,NNE,22,7.0,-999.0,57,-99.99,,,-99.99,285.359985,,2013-10-29 18:52:00,
2013-10-29 16:00:00,53.0,37.0,-100.00,NNE,22,7.0,-999.0,53,-99.99,,,-99.99,193.720001,,2013-10-29 20:00:00,
2013-10-29 16:43:00,53.0,37.0,-100.00,NNE,22,7.0,-999.0,53,-99.99,,,-99.99,193.720001,,2013-10-29 20:43:00,
2013-10-29 16:52:00,53.0,37.0,-100.00,NNE,22,7.0,-999.0,53,-99.99,,,-99.99,193.720001,,2013-10-29 20:52:00,
2013-10-29 17:00:00,54.0,37.0,-100.00,North,0,6.0,-999.0,52,-99.99,,,-99.99,178.639999,,2013-10-29 21:00:00,
2013-10-29 17:43:00,54.0,37.0,-100.00,North,0,6.0,-999.0,52,-99.99,,,-99.99,178.639999,,2013-10-29 21:43:00,
2013-10-29 17:54:00,54.0,37.0,-100.00,North,0,6.0,-999.0,52,-99.99,,,-99.99,178.639999,,2013-10-29 21:54:00,
2013-10-29 19:00:00,52.0,36.0,-100.00,North,0,5.0,-999.0,53,-99.99,,,-99.99,10.440000,,2013-10-29 23:00:00,
2013-10-29 19:43:00,52.0,36.0,-100.00,North,0,5.0,-999.0,53,-99.99,,,-99.99,10.440000,,2013-10-29 23:43:00,
2013-10-29 19:53:00,52.0,36.0,-100.00,North,0,5.0,-999.0,53,-99.99,,,-99.99,10.440000,,2013-10-29 23:53:00,
2013-10-29 20:00:00,50.0,36.0,-100.00,NNW,337,4.0,-999.0,59,-99.99,,,-99.99,0.000000,,2013-10-30 00:00:00,
2013-10-29 20:42:00,50.0,36.0,-100.00,NNW,337,4.0,-999.0,59,-99.99,,,-99.99,0.000000,,2013-10-30 00:42:00,
2013-10-29 20:52:00,50.0,36.0,-100.00,NNW,337,4.0,-999.0,59,-99.99,,,-99.99,0.000000,,2013-10-30 00:52:00,
2013-10-29 22:00:00,47.0,36.0,-100.00,North,0,3.0,-999.0,65,-99.99,,,-99.99,0.000000,,2013-10-30 02:00:00,
2013-10-29 22:42:00,47.0,36.0,-100.00,North,0,3.0,-999.0,65,-99.99,,,-99.99,0.000000,,2013-10-30 02:42:00,
2013-10-29 22:52:00,47.0,36.0,-100.00,North,0,3.0,-999.0,65,-99.99,,,-99.99,0.000000,,2013-10-30 02:52:00,
2013-10-29 23:00:00,47.0,36.0,-100.00,North,0,6.0,-999.0,66,-99.99,,,-99.99,0.000000,,2013-10-30 03:00:00,
2013-10-29 23:44:00,47.0,36.0,-100.00,North,0,6.0,-999.0,66,-99.99,,,-99.99,0.000000,,2013-10-30 03:44:00,
2013-10-29 23:54:00,47.0,36.0,-100.00,North,0,6.0,-999.0,66,-99.99,,,-99.99,0.000000,,2013-10-30 03:54:00,